sensor_id;sensor_type;location;lat;lon;timestamp;P1;durP1;ratioP1;P2;durP2;ratioP2
22610;SDS011;11472;45.494;12.142;2022-11-15T00:00:00;39.90;;;27.20;;
22610;SDS011;11472;45.494;12.142;2022-11-15T00:01:00;39.90;;;27.20;;
22610;SDS011;11472;45.494;12.142;2022-11-15T00:02:00;39.90;;;27.20;;
22610;SDS011;11472;45.494;12.142;2022-11-15T00:03:00;39.90;;;27.20;;
22610;SDS011;11472;45.494;12.142;2022-11-15T00:04:00;39.90;;;27.20;;
22610;SDS011;11472;45.494;12.142;2022-11-15T00:05:00;39.90;;;27.20;;
22610;SDS011;11472;45.494;12.142;2022-11-15T00:06:03;39.90;;;27.20;;
22610;SDS011;11472;45.494;12.142;2022-11-15T00:07:00;39.90;;;27.20;;
22610;SDS011;11472;45.494;12.142;2022-11-15T00:08:00;39.90;;;27.20;;
22610;SDS011;11472;45.494;12.142;2022-11-15T00:09:00;39.90;;;27.20;;
22610;SDS011;11472;45.494;12.142;2022-11-15T00:10:00;39.90;;;27.20;;
22610;SDS011;11472;45.494;12.142;2022-11-15T00:11:02;39.90;;;27.20;;
22610;SDS011;11472;45.494;12.142;2022-11-15T00:12:00;41.80;;;28.10;;
22610;SDS011;11472;45.494;12.142;2022-11-15T00:13:03;41.80;;;28.10;;
22610;SDS011;11472;45.494;12.142;2022-11-15T00:14:02;41.80;;;28.10;;
22610;SDS011;11472;45.494;12.142;2022-11-15T00:15:00;41.80;;;28.10;;
22610;SDS011;11472;45.494;12.142;2022-11-15T00:16:01;41.80;;;28.10;;
22610;SDS011;11472;45.494;12.142;2022-11-15T00:17:00;41.80;;;28.10;;
22610;SDS011;11472;45.494;12.142;2022-11-15T00:18:00;41.80;;;28.10;;
22610;SDS011;11472;45.494;12.142;2022-11-15T00:19:00;41.80;;;28.10;;
22610;SDS011;11472;45.494;12.142;2022-11-15T00:20:00;41.80;;;28.10;;
22610;SDS011;11472;45.494;12.142;2022-11-15T00:21:06;41.80;;;28.10;;
22610;SDS011;11472;45.494;12.142;2022-11-15T00:22:00;41.80;;;28.10;;
22610;SDS011;11472;45.494;12.142;2022-11-15T00:23:02;41.80;;;28.10;;
22610;SDS011;11472;45.494;12.142;2022-11-15T00:24:00;41.80;;;28.10;;
22610;SDS011;11472;45.494;12.142;2022-11-15T00:25:00;41.80;;;28.10;;
22610;SDS011;11472;45.494;12.142;2022-11-15T00:26:00;41.80;;;28.10;;
22610;SDS011;11472;45.494;12.142;2022-11-15T00:27:00;40.10;;;27.70;;
22610;SDS011;11472;45.494;12.142;2022-11-15T00:28:00;40.10;;;27.70;;
22610;SDS011;11472;45.494;12.142;2022-11-15T00:29:00;40.10;;;27.70;;
22610;SDS011;11472;45.494;12.142;2022-11-15T00:30:00;40.10;;;27.70;;
22610;SDS011;11472;45.494;12.142;2022-11-15T00:31:03;40.10;;;27.70;;
22610;SDS011;11472;45.494;12.142;2022-11-15T00:32:00;40.10;;;27.70;;
22610;SDS011;11472;45.494;12.142;2022-11-15T00:33:04;40.10;;;27.70;;
22610;SDS011;11472;45.494;12.142;2022-11-15T00:34:00;40.10;;;27.70;;
22610;SDS011;11472;45.494;12.142;2022-11-15T00:35:00;40.10;;;27.70;;
22610;SDS011;11472;45.494;12.142;2022-11-15T00:36:02;40.10;;;27.70;;
22610;SDS011;11472;45.494;12.142;2022-11-15T00:37:00;40.10;;;27.70;;
22610;SDS011;11472;45.494;12.142;2022-11-15T00:38:01;40.10;;;27.70;;
22610;SDS011;11472;45.494;12.142;2022-11-15T00:39:00;40.10;;;27.70;;
22610;SDS011;11472;45.494;12.142;2022-11-15T00:40:00;40.10;;;27.70;;
22610;SDS011;11472;45.494;12.142;2022-11-15T00:41:06;40.10;;;27.70;;
22610;SDS011;11472;45.494;12.142;2022-11-15T00:42:02;41.90;;;28.10;;
22610;SDS011;11472;45.494;12.142;2022-11-15T00:43:00;41.90;;;28.10;;
22610;SDS011;11472;45.494;12.142;2022-11-15T00:44:00;41.90;;;28.10;;
22610;SDS011;11472;45.494;12.142;2022-11-15T00:45:00;41.90;;;28.10;;
22610;SDS011;11472;45.494;12.142;2022-11-15T00:46:02;41.90;;;28.10;;
22610;SDS011;11472;45.494;12.142;2022-11-15T00:47:00;41.90;;;28.10;;
22610;SDS011;11472;45.494;12.142;2022-11-15T00:48:00;41.90;;;28.10;;
22610;SDS011;11472;45.494;12.142;2022-11-15T00:49:00;41.90;;;28.10;;
22610;SDS011;11472;45.494;12.142;2022-11-15T00:50:00;41.90;;;28.10;;
22610;SDS011;11472;45.494;12.142;2022-11-15T00:51:00;41.90;;;28.10;;
22610;SDS011;11472;45.494;12.142;2022-11-15T00:52:00;41.90;;;28.10;;
22610;SDS011;11472;45.494;12.142;2022-11-15T00:53:00;41.90;;;28.10;;
22610;SDS011;11472;45.494;12.142;2022-11-15T00:54:00;41.90;;;28.10;;
22610;SDS011;11472;45.494;12.142;2022-11-15T00:55:00;41.90;;;28.10;;
22610;SDS011;11472;45.494;12.142;2022-11-15T00:56:00;41.90;;;28.10;;
22610;SDS011;11472;45.494;12.142;2022-11-15T00:57:00;42.10;;;28.70;;
22610;SDS011;11472;45.494;12.142;2022-11-15T00:58:00;42.10;;;28.70;;
22610;SDS011;11472;45.494;12.142;2022-11-15T00:59:00;42.10;;;28.70;;
22610;SDS011;11472;45.494;12.142;2022-11-15T01:00:00;42.10;;;28.70;;
22610;SDS011;11472;45.494;12.142;2022-11-15T01:01:11;42.10;;;28.70;;
22610;SDS011;11472;45.494;12.142;2022-11-15T01:02:01;42.10;;;28.70;;
22610;SDS011;11472;45.494;12.142;2022-11-15T01:03:01;42.10;;;28.70;;
22610;SDS011;11472;45.494;12.142;2022-11-15T01:04:02;42.10;;;28.70;;
22610;SDS011;11472;45.494;12.142;2022-11-15T01:05:00;42.10;;;28.70;;
22610;SDS011;11472;45.494;12.142;2022-11-15T01:06:00;42.10;;;28.70;;
22610;SDS011;11472;45.494;12.142;2022-11-15T01:07:00;42.10;;;28.70;;
22610;SDS011;11472;45.494;12.142;2022-11-15T01:08:00;42.10;;;28.70;;
22610;SDS011;11472;45.494;12.142;2022-11-15T01:09:00;42.10;;;28.70;;
22610;SDS011;11472;45.494;12.142;2022-11-15T01:10:00;42.10;;;28.70;;
22610;SDS011;11472;45.494;12.142;2022-11-15T01:11:02;42.10;;;28.70;;
22610;SDS011;11472;45.494;12.142;2022-11-15T01:12:00;41.50;;;28.60;;
22610;SDS011;11472;45.494;12.142;2022-11-15T01:13:00;41.50;;;28.60;;
22610;SDS011;11472;45.494;12.142;2022-11-15T01:14:00;41.50;;;28.60;;
22610;SDS011;11472;45.494;12.142;2022-11-15T01:15:00;41.50;;;28.60;;
22610;SDS011;11472;45.494;12.142;2022-11-15T01:16:12;41.50;;;28.60;;
22610;SDS011;11472;45.494;12.142;2022-11-15T01:17:00;41.50;;;28.60;;
22610;SDS011;11472;45.494;12.142;2022-11-15T01:18:00;41.50;;;28.60;;
22610;SDS011;11472;45.494;12.142;2022-11-15T01:19:00;41.50;;;28.60;;
22610;SDS011;11472;45.494;12.142;2022-11-15T01:20:00;41.50;;;28.60;;
22610;SDS011;11472;45.494;12.142;2022-11-15T01:21:06;41.50;;;28.60;;
22610;SDS011;11472;45.494;12.142;2022-11-15T01:22:00;41.50;;;28.60;;
22610;SDS011;11472;45.494;12.142;2022-11-15T01:23:00;41.50;;;28.60;;
22610;SDS011;11472;45.494;12.142;2022-11-15T01:24:00;41.50;;;28.60;;
22610;SDS011;11472;45.494;12.142;2022-11-15T01:25:00;41.50;;;28.60;;
22610;SDS011;11472;45.494;12.142;2022-11-15T01:26:02;41.50;;;28.60;;
22610;SDS011;11472;45.494;12.142;2022-11-15T01:27:00;43.70;;;28.80;;
22610;SDS011;11472;45.494;12.142;2022-11-15T01:28:00;43.70;;;28.80;;
22610;SDS011;11472;45.494;12.142;2022-11-15T01:29:00;43.70;;;28.80;;
22610;SDS011;11472;45.494;12.142;2022-11-15T01:30:00;43.70;;;28.80;;
22610;SDS011;11472;45.494;12.142;2022-11-15T01:31:02;43.70;;;28.80;;
22610;SDS011;11472;45.494;12.142;2022-11-15T01:32:00;43.70;;;28.80;;
22610;SDS011;11472;45.494;12.142;2022-11-15T01:33:00;43.70;;;28.80;;
22610;SDS011;11472;45.494;12.142;2022-11-15T01:34:00;43.70;;;28.80;;
22610;SDS011;11472;45.494;12.142;2022-11-15T01:35:00;43.70;;;28.80;;
22610;SDS011;11472;45.494;12.142;2022-11-15T01:36:04;43.70;;;28.80;;
22610;SDS011;11472;45.494;12.142;2022-11-15T01:37:00;43.70;;;28.80;;
22610;SDS011;11472;45.494;12.142;2022-11-15T01:38:00;43.70;;;28.80;;
22610;SDS011;11472;45.494;12.142;2022-11-15T01:39:00;43.70;;;28.80;;
22610;SDS011;11472;45.494;12.142;2022-11-15T01:40:00;43.70;;;28.80;;
22610;SDS011;11472;45.494;12.142;2022-11-15T01:41:00;43.70;;;28.80;;
22610;SDS011;11472;45.494;12.142;2022-11-15T01:42:00;43.80;;;29.30;;
22610;SDS011;11472;45.494;12.142;2022-11-15T01:43:19;43.80;;;29.30;;
22610;SDS011;11472;45.494;12.142;2022-11-15T01:45:00;43.80;;;29.30;;
22610;SDS011;11472;45.494;12.142;2022-11-15T01:47:03;43.80;;;29.30;;
22610;SDS011;11472;45.494;12.142;2022-11-15T01:48:00;43.80;;;29.30;;
22610;SDS011;11472;45.494;12.142;2022-11-15T01:49:03;43.80;;;29.30;;
22610;SDS011;11472;45.494;12.142;2022-11-15T01:50:12;43.80;;;29.30;;
22610;SDS011;11472;45.494;12.142;2022-11-15T01:51:02;43.80;;;29.30;;
22610;SDS011;11472;45.494;12.142;2022-11-15T01:52:02;43.80;;;29.30;;
22610;SDS011;11472;45.494;12.142;2022-11-15T01:53:00;43.80;;;29.30;;
22610;SDS011;11472;45.494;12.142;2022-11-15T01:54:04;43.80;;;29.30;;
22610;SDS011;11472;45.494;12.142;2022-11-15T01:55:11;43.80;;;29.30;;
22610;SDS011;11472;45.494;12.142;2022-11-15T01:56:02;43.80;;;29.30;;
22610;SDS011;11472;45.494;12.142;2022-11-15T01:57:03;47.30;;;31.60;;
22610;SDS011;11472;45.494;12.142;2022-11-15T01:58:02;47.30;;;31.60;;
22610;SDS011;11472;45.494;12.142;2022-11-15T01:59:05;47.30;;;31.60;;
22610;SDS011;11472;45.494;12.142;2022-11-15T02:00:02;47.30;;;31.60;;
22610;SDS011;11472;45.494;12.142;2022-11-15T02:01:01;47.30;;;31.60;;
22610;SDS011;11472;45.494;12.142;2022-11-15T02:02:00;47.30;;;31.60;;
22610;SDS011;11472;45.494;12.142;2022-11-15T02:03:01;47.30;;;31.60;;
22610;SDS011;11472;45.494;12.142;2022-11-15T02:04:02;47.30;;;31.60;;
22610;SDS011;11472;45.494;12.142;2022-11-15T02:05:00;47.30;;;31.60;;
22610;SDS011;11472;45.494;12.142;2022-11-15T02:06:01;47.30;;;31.60;;
22610;SDS011;11472;45.494;12.142;2022-11-15T02:07:02;47.30;;;31.60;;
22610;SDS011;11472;45.494;12.142;2022-11-15T02:08:00;47.30;;;31.60;;
22610;SDS011;11472;45.494;12.142;2022-11-15T02:09:00;47.30;;;31.60;;
22610;SDS011;11472;45.494;12.142;2022-11-15T02:10:05;47.30;;;31.60;;
22610;SDS011;11472;45.494;12.142;2022-11-15T02:11:00;47.30;;;31.60;;
22610;SDS011;11472;45.494;12.142;2022-11-15T02:12:00;52.30;;;34.00;;
22610;SDS011;11472;45.494;12.142;2022-11-15T02:13:03;52.30;;;34.00;;
22610;SDS011;11472;45.494;12.142;2022-11-15T02:14:00;52.30;;;34.00;;
22610;SDS011;11472;45.494;12.142;2022-11-15T02:15:00;52.30;;;34.00;;
22610;SDS011;11472;45.494;12.142;2022-11-15T02:18:22;52.30;;;34.00;;
22610;SDS011;11472;45.494;12.142;2022-11-15T02:29:03;53.10;;;34.00;;
22610;SDS011;11472;45.494;12.142;2022-11-15T02:31:09;53.10;;;34.00;;
22610;SDS011;11472;45.494;12.142;2022-11-15T02:35:06;53.10;;;34.00;;
22610;SDS011;11472;45.494;12.142;2022-11-15T02:36:05;53.10;;;34.00;;
22610;SDS011;11472;45.494;12.142;2022-11-15T02:37:07;53.10;;;34.00;;
22610;SDS011;11472;45.494;12.142;2022-11-15T02:38:29;53.10;;;34.00;;
22610;SDS011;11472;45.494;12.142;2022-11-15T02:41:10;53.10;;;34.00;;
22610;SDS011;11472;45.494;12.142;2022-11-15T02:42:06;55.50;;;35.00;;
22610;SDS011;11472;45.494;12.142;2022-11-15T02:43:21;55.50;;;35.00;;
22610;SDS011;11472;45.494;12.142;2022-11-15T02:44:07;55.50;;;35.00;;
22610;SDS011;11472;45.494;12.142;2022-11-15T02:45:03;55.50;;;35.00;;
22610;SDS011;11472;45.494;12.142;2022-11-15T02:47:12;55.50;;;35.00;;
22610;SDS011;11472;45.494;12.142;2022-11-15T02:48:00;55.50;;;35.00;;
22610;SDS011;11472;45.494;12.142;2022-11-15T02:49:00;55.50;;;35.00;;
22610;SDS011;11472;45.494;12.142;2022-11-15T02:50:03;55.50;;;35.00;;
22610;SDS011;11472;45.494;12.142;2022-11-15T02:51:00;55.50;;;35.00;;
22610;SDS011;11472;45.494;12.142;2022-11-15T02:52:00;55.50;;;35.00;;
22610;SDS011;11472;45.494;12.142;2022-11-15T02:53:00;55.50;;;35.00;;
22610;SDS011;11472;45.494;12.142;2022-11-15T02:54:00;55.50;;;35.00;;
22610;SDS011;11472;45.494;12.142;2022-11-15T02:55:01;55.50;;;35.00;;
22610;SDS011;11472;45.494;12.142;2022-11-15T02:56:00;55.50;;;35.00;;
22610;SDS011;11472;45.494;12.142;2022-11-15T02:57:04;54.60;;;35.40;;
22610;SDS011;11472;45.494;12.142;2022-11-15T03:00:05;54.60;;;35.40;;
22610;SDS011;11472;45.494;12.142;2022-11-15T03:03:22;54.60;;;35.40;;
22610;SDS011;11472;45.494;12.142;2022-11-15T03:07:03;54.60;;;35.40;;
22610;SDS011;11472;45.494;12.142;2022-11-15T03:10:14;54.60;;;35.40;;
22610;SDS011;11472;45.494;12.142;2022-11-15T03:11:08;54.60;;;35.40;;
22610;SDS011;11472;45.494;12.142;2022-11-15T03:12:05;53.70;;;35.10;;
22610;SDS011;11472;45.494;12.142;2022-11-15T03:14:14;53.70;;;35.10;;
22610;SDS011;11472;45.494;12.142;2022-11-15T03:15:05;53.70;;;35.10;;
22610;SDS011;11472;45.494;12.142;2022-11-15T03:17:24;53.70;;;35.10;;
22610;SDS011;11472;45.494;12.142;2022-11-15T03:19:08;53.70;;;35.10;;
22610;SDS011;11472;45.494;12.142;2022-11-15T03:20:03;53.70;;;35.10;;
22610;SDS011;11472;45.494;12.142;2022-11-15T03:21:02;53.70;;;35.10;;
22610;SDS011;11472;45.494;12.142;2022-11-15T03:22:02;53.70;;;35.10;;
22610;SDS011;11472;45.494;12.142;2022-11-15T03:23:04;53.70;;;35.10;;
22610;SDS011;11472;45.494;12.142;2022-11-15T03:24:02;53.70;;;35.10;;
22610;SDS011;11472;45.494;12.142;2022-11-15T03:25:02;53.70;;;35.10;;
22610;SDS011;11472;45.494;12.142;2022-11-15T03:26:01;53.70;;;35.10;;
22610;SDS011;11472;45.494;12.142;2022-11-15T03:27:00;54.80;;;34.90;;
22610;SDS011;11472;45.494;12.142;2022-11-15T03:28:02;54.80;;;34.90;;
22610;SDS011;11472;45.494;12.142;2022-11-15T03:29:04;54.80;;;34.90;;
22610;SDS011;11472;45.494;12.142;2022-11-15T03:30:02;54.80;;;34.90;;
22610;SDS011;11472;45.494;12.142;2022-11-15T03:31:01;54.80;;;34.90;;
22610;SDS011;11472;45.494;12.142;2022-11-15T03:32:03;54.80;;;34.90;;
22610;SDS011;11472;45.494;12.142;2022-11-15T03:33:00;54.80;;;34.90;;
22610;SDS011;11472;45.494;12.142;2022-11-15T03:34:00;54.80;;;34.90;;
22610;SDS011;11472;45.494;12.142;2022-11-15T03:35:03;54.80;;;34.90;;
22610;SDS011;11472;45.494;12.142;2022-11-15T03:36:00;54.80;;;34.90;;
22610;SDS011;11472;45.494;12.142;2022-11-15T03:37:00;54.80;;;34.90;;
22610;SDS011;11472;45.494;12.142;2022-11-15T03:39:02;54.80;;;34.90;;
22610;SDS011;11472;45.494;12.142;2022-11-15T03:40:00;54.80;;;34.90;;
22610;SDS011;11472;45.494;12.142;2022-11-15T03:41:04;54.80;;;34.90;;
22610;SDS011;11472;45.494;12.142;2022-11-15T03:42:08;55.90;;;35.30;;
22610;SDS011;11472;45.494;12.142;2022-11-15T03:44:10;55.90;;;35.30;;
22610;SDS011;11472;45.494;12.142;2022-11-15T03:46:12;55.90;;;35.30;;
22610;SDS011;11472;45.494;12.142;2022-11-15T03:48:12;55.90;;;35.30;;
22610;SDS011;11472;45.494;12.142;2022-11-15T03:49:09;55.90;;;35.30;;
22610;SDS011;11472;45.494;12.142;2022-11-15T03:50:07;55.90;;;35.30;;
22610;SDS011;11472;45.494;12.142;2022-11-15T03:51:00;55.90;;;35.30;;
22610;SDS011;11472;45.494;12.142;2022-11-15T03:52:01;55.90;;;35.30;;
22610;SDS011;11472;45.494;12.142;2022-11-15T03:53:00;55.90;;;35.30;;
22610;SDS011;11472;45.494;12.142;2022-11-15T03:54:03;55.90;;;35.30;;
22610;SDS011;11472;45.494;12.142;2022-11-15T03:55:01;55.90;;;35.30;;
22610;SDS011;11472;45.494;12.142;2022-11-15T03:56:00;55.90;;;35.30;;
22610;SDS011;11472;45.494;12.142;2022-11-15T03:57:00;59.40;;;36.60;;
22610;SDS011;11472;45.494;12.142;2022-11-15T03:58:00;59.40;;;36.60;;
22610;SDS011;11472;45.494;12.142;2022-11-15T03:59:00;59.40;;;36.60;;
22610;SDS011;11472;45.494;12.142;2022-11-15T04:00:02;59.40;;;36.60;;
22610;SDS011;11472;45.494;12.142;2022-11-15T04:01:00;59.40;;;36.60;;
22610;SDS011;11472;45.494;12.142;2022-11-15T04:02:00;59.40;;;36.60;;
22610;SDS011;11472;45.494;12.142;2022-11-15T04:03:00;59.40;;;36.60;;
22610;SDS011;11472;45.494;12.142;2022-11-15T04:04:00;59.40;;;36.60;;
22610;SDS011;11472;45.494;12.142;2022-11-15T04:05:00;59.40;;;36.60;;
22610;SDS011;11472;45.494;12.142;2022-11-15T04:06:00;59.40;;;36.60;;
22610;SDS011;11472;45.494;12.142;2022-11-15T04:07:00;59.40;;;36.60;;
22610;SDS011;11472;45.494;12.142;2022-11-15T04:08:00;59.40;;;36.60;;
22610;SDS011;11472;45.494;12.142;2022-11-15T04:09:00;59.40;;;36.60;;
22610;SDS011;11472;45.494;12.142;2022-11-15T04:10:04;59.40;;;36.60;;
22610;SDS011;11472;45.494;12.142;2022-11-15T04:11:02;59.40;;;36.60;;
22610;SDS011;11472;45.494;12.142;2022-11-15T04:12:00;54.80;;;35.60;;
22610;SDS011;11472;45.494;12.142;2022-11-15T04:13:02;54.80;;;35.60;;
22610;SDS011;11472;45.494;12.142;2022-11-15T04:14:00;54.80;;;35.60;;
22610;SDS011;11472;45.494;12.142;2022-11-15T04:15:09;54.80;;;35.60;;
22610;SDS011;11472;45.494;12.142;2022-11-15T04:16:00;54.80;;;35.60;;
22610;SDS011;11472;45.494;12.142;2022-11-15T04:17:00;54.80;;;35.60;;
22610;SDS011;11472;45.494;12.142;2022-11-15T04:18:00;54.80;;;35.60;;
22610;SDS011;11472;45.494;12.142;2022-11-15T04:19:10;54.80;;;35.60;;
22610;SDS011;11472;45.494;12.142;2022-11-15T04:20:12;54.80;;;35.60;;
22610;SDS011;11472;45.494;12.142;2022-11-15T04:21:10;54.80;;;35.60;;
22610;SDS011;11472;45.494;12.142;2022-11-15T04:22:10;54.80;;;35.60;;
22610;SDS011;11472;45.494;12.142;2022-11-15T04:23:12;54.80;;;35.60;;
22610;SDS011;11472;45.494;12.142;2022-11-15T04:24:10;54.80;;;35.60;;
22610;SDS011;11472;45.494;12.142;2022-11-15T04:25:00;54.80;;;35.60;;
22610;SDS011;11472;45.494;12.142;2022-11-15T04:26:03;54.80;;;35.60;;
22610;SDS011;11472;45.494;12.142;2022-11-15T04:27:00;62.70;;;37.30;;
22610;SDS011;11472;45.494;12.142;2022-11-15T04:28:00;62.70;;;37.30;;
22610;SDS011;11472;45.494;12.142;2022-11-15T04:29:10;62.70;;;37.30;;
22610;SDS011;11472;45.494;12.142;2022-11-15T04:30:00;62.70;;;37.30;;
22610;SDS011;11472;45.494;12.142;2022-11-15T04:31:00;62.70;;;37.30;;
22610;SDS011;11472;45.494;12.142;2022-11-15T04:32:05;62.70;;;37.30;;
22610;SDS011;11472;45.494;12.142;2022-11-15T04:33:00;62.70;;;37.30;;
22610;SDS011;11472;45.494;12.142;2022-11-15T04:34:00;62.70;;;37.30;;
22610;SDS011;11472;45.494;12.142;2022-11-15T04:35:00;62.70;;;37.30;;
22610;SDS011;11472;45.494;12.142;2022-11-15T04:36:10;62.70;;;37.30;;
22610;SDS011;11472;45.494;12.142;2022-11-15T04:37:10;62.70;;;37.30;;
22610;SDS011;11472;45.494;12.142;2022-11-15T04:38:01;62.70;;;37.30;;
22610;SDS011;11472;45.494;12.142;2022-11-15T04:39:00;62.70;;;37.30;;
22610;SDS011;11472;45.494;12.142;2022-11-15T04:40:00;62.70;;;37.30;;
22610;SDS011;11472;45.494;12.142;2022-11-15T04:41:00;62.70;;;37.30;;
22610;SDS011;11472;45.494;12.142;2022-11-15T04:42:00;60.90;;;36.90;;
22610;SDS011;11472;45.494;12.142;2022-11-15T04:43:04;60.90;;;36.90;;
22610;SDS011;11472;45.494;12.142;2022-11-15T04:44:00;60.90;;;36.90;;
22610;SDS011;11472;45.494;12.142;2022-11-15T04:45:02;60.90;;;36.90;;
22610;SDS011;11472;45.494;12.142;2022-11-15T04:46:00;60.90;;;36.90;;
22610;SDS011;11472;45.494;12.142;2022-11-15T04:47:00;60.90;;;36.90;;
22610;SDS011;11472;45.494;12.142;2022-11-15T04:48:00;60.90;;;36.90;;
22610;SDS011;11472;45.494;12.142;2022-11-15T04:49:00;60.90;;;36.90;;
22610;SDS011;11472;45.494;12.142;2022-11-15T04:50:00;60.90;;;36.90;;
22610;SDS011;11472;45.494;12.142;2022-11-15T04:51:00;60.90;;;36.90;;
22610;SDS011;11472;45.494;12.142;2022-11-15T04:52:00;60.90;;;36.90;;
22610;SDS011;11472;45.494;12.142;2022-11-15T04:53:00;60.90;;;36.90;;
22610;SDS011;11472;45.494;12.142;2022-11-15T04:54:00;60.90;;;36.90;;
22610;SDS011;11472;45.494;12.142;2022-11-15T04:55:05;60.90;;;36.90;;
22610;SDS011;11472;45.494;12.142;2022-11-15T04:56:00;60.90;;;36.90;;
22610;SDS011;11472;45.494;12.142;2022-11-15T04:57:00;96.40;;;62.40;;
22610;SDS011;11472;45.494;12.142;2022-11-15T04:58:01;96.40;;;62.40;;
22610;SDS011;11472;45.494;12.142;2022-11-15T04:59:00;96.40;;;62.40;;
22610;SDS011;11472;45.494;12.142;2022-11-15T05:00:01;96.40;;;62.40;;
22610;SDS011;11472;45.494;12.142;2022-11-15T05:01:11;96.40;;;62.40;;
22610;SDS011;11472;45.494;12.142;2022-11-15T05:02:00;96.40;;;62.40;;
22610;SDS011;11472;45.494;12.142;2022-11-15T05:03:10;96.40;;;62.40;;
22610;SDS011;11472;45.494;12.142;2022-11-15T05:04:10;96.40;;;62.40;;
22610;SDS011;11472;45.494;12.142;2022-11-15T05:05:00;96.40;;;62.40;;
22610;SDS011;11472;45.494;12.142;2022-11-15T05:06:00;96.40;;;62.40;;
22610;SDS011;11472;45.494;12.142;2022-11-15T05:07:00;96.40;;;62.40;;
22610;SDS011;11472;45.494;12.142;2022-11-15T05:08:00;96.40;;;62.40;;
22610;SDS011;11472;45.494;12.142;2022-11-15T05:09:00;96.40;;;62.40;;
22610;SDS011;11472;45.494;12.142;2022-11-15T05:10:00;96.40;;;62.40;;
22610;SDS011;11472;45.494;12.142;2022-11-15T05:11:00;96.40;;;62.40;;
22610;SDS011;11472;45.494;12.142;2022-11-15T05:12:00;58.80;;;37.40;;
22610;SDS011;11472;45.494;12.142;2022-11-15T05:13:00;58.80;;;37.40;;
22610;SDS011;11472;45.494;12.142;2022-11-15T05:14:00;58.80;;;37.40;;
22610;SDS011;11472;45.494;12.142;2022-11-15T05:15:00;58.80;;;37.40;;
22610;SDS011;11472;45.494;12.142;2022-11-15T05:16:00;58.80;;;37.40;;
22610;SDS011;11472;45.494;12.142;2022-11-15T05:17:00;58.80;;;37.40;;
22610;SDS011;11472;45.494;12.142;2022-11-15T05:18:00;58.80;;;37.40;;
22610;SDS011;11472;45.494;12.142;2022-11-15T05:19:00;58.80;;;37.40;;
22610;SDS011;11472;45.494;12.142;2022-11-15T05:20:00;58.80;;;37.40;;
22610;SDS011;11472;45.494;12.142;2022-11-15T05:21:10;58.80;;;37.40;;
22610;SDS011;11472;45.494;12.142;2022-11-15T05:22:00;58.80;;;37.40;;
22610;SDS011;11472;45.494;12.142;2022-11-15T05:23:00;58.80;;;37.40;;
22610;SDS011;11472;45.494;12.142;2022-11-15T05:24:02;58.80;;;37.40;;
22610;SDS011;11472;45.494;12.142;2022-11-15T05:25:00;58.80;;;37.40;;
22610;SDS011;11472;45.494;12.142;2022-11-15T05:26:05;58.80;;;37.40;;
22610;SDS011;11472;45.494;12.142;2022-11-15T05:27:00;53.10;;;33.70;;
22610;SDS011;11472;45.494;12.142;2022-11-15T05:28:00;53.10;;;33.70;;
22610;SDS011;11472;45.494;12.142;2022-11-15T05:29:00;53.10;;;33.70;;
22610;SDS011;11472;45.494;12.142;2022-11-15T05:30:00;53.10;;;33.70;;
22610;SDS011;11472;45.494;12.142;2022-11-15T05:31:06;53.10;;;33.70;;
22610;SDS011;11472;45.494;12.142;2022-11-15T05:32:00;53.10;;;33.70;;
22610;SDS011;11472;45.494;12.142;2022-11-15T05:33:00;53.10;;;33.70;;
22610;SDS011;11472;45.494;12.142;2022-11-15T05:34:00;53.10;;;33.70;;
22610;SDS011;11472;45.494;12.142;2022-11-15T05:35:00;53.10;;;33.70;;
22610;SDS011;11472;45.494;12.142;2022-11-15T05:36:04;53.10;;;33.70;;
22610;SDS011;11472;45.494;12.142;2022-11-15T05:37:00;53.10;;;33.70;;
22610;SDS011;11472;45.494;12.142;2022-11-15T05:38:00;53.10;;;33.70;;
22610;SDS011;11472;45.494;12.142;2022-11-15T05:39:01;53.10;;;33.70;;
22610;SDS011;11472;45.494;12.142;2022-11-15T05:40:00;53.10;;;33.70;;
22610;SDS011;11472;45.494;12.142;2022-11-15T05:41:01;53.10;;;33.70;;
22610;SDS011;11472;45.494;12.142;2022-11-15T05:42:11;54.70;;;35.00;;
22610;SDS011;11472;45.494;12.142;2022-11-15T05:43:00;54.70;;;35.00;;
22610;SDS011;11472;45.494;12.142;2022-11-15T05:44:01;54.70;;;35.00;;
22610;SDS011;11472;45.494;12.142;2022-11-15T05:45:01;54.70;;;35.00;;
22610;SDS011;11472;45.494;12.142;2022-11-15T05:46:00;54.70;;;35.00;;
22610;SDS011;11472;45.494;12.142;2022-11-15T05:47:00;54.70;;;35.00;;
22610;SDS011;11472;45.494;12.142;2022-11-15T05:48:00;54.70;;;35.00;;
22610;SDS011;11472;45.494;12.142;2022-11-15T05:49:00;54.70;;;35.00;;
22610;SDS011;11472;45.494;12.142;2022-11-15T05:50:00;54.70;;;35.00;;
22610;SDS011;11472;45.494;12.142;2022-11-15T05:51:00;54.70;;;35.00;;
22610;SDS011;11472;45.494;12.142;2022-11-15T05:52:00;54.70;;;35.00;;
22610;SDS011;11472;45.494;12.142;2022-11-15T05:53:05;54.70;;;35.00;;
22610;SDS011;11472;45.494;12.142;2022-11-15T05:54:00;54.70;;;35.00;;
22610;SDS011;11472;45.494;12.142;2022-11-15T05:55:00;54.70;;;35.00;;
22610;SDS011;11472;45.494;12.142;2022-11-15T05:56:00;54.70;;;35.00;;
22610;SDS011;11472;45.494;12.142;2022-11-15T05:57:00;50.30;;;32.20;;
22610;SDS011;11472;45.494;12.142;2022-11-15T05:58:00;50.30;;;32.20;;
22610;SDS011;11472;45.494;12.142;2022-11-15T05:59:01;50.30;;;32.20;;
22610;SDS011;11472;45.494;12.142;2022-11-15T06:00:00;50.30;;;32.20;;
22610;SDS011;11472;45.494;12.142;2022-11-15T06:01:00;50.30;;;32.20;;
22610;SDS011;11472;45.494;12.142;2022-11-15T06:02:00;50.30;;;32.20;;
22610;SDS011;11472;45.494;12.142;2022-11-15T06:03:00;50.30;;;32.20;;
22610;SDS011;11472;45.494;12.142;2022-11-15T06:04:00;50.30;;;32.20;;
22610;SDS011;11472;45.494;12.142;2022-11-15T06:05:00;50.30;;;32.20;;
22610;SDS011;11472;45.494;12.142;2022-11-15T06:06:01;50.30;;;32.20;;
22610;SDS011;11472;45.494;12.142;2022-11-15T06:07:00;50.30;;;32.20;;
22610;SDS011;11472;45.494;12.142;2022-11-15T06:08:00;50.30;;;32.20;;
22610;SDS011;11472;45.494;12.142;2022-11-15T06:09:00;50.30;;;32.20;;
22610;SDS011;11472;45.494;12.142;2022-11-15T06:10:00;50.30;;;32.20;;
22610;SDS011;11472;45.494;12.142;2022-11-15T06:11:05;50.30;;;32.20;;
22610;SDS011;11472;45.494;12.142;2022-11-15T06:12:00;53.30;;;31.60;;
22610;SDS011;11472;45.494;12.142;2022-11-15T06:13:02;53.30;;;31.60;;
22610;SDS011;11472;45.494;12.142;2022-11-15T06:14:00;53.30;;;31.60;;
22610;SDS011;11472;45.494;12.142;2022-11-15T06:15:00;53.30;;;31.60;;
22610;SDS011;11472;45.494;12.142;2022-11-15T06:16:00;53.30;;;31.60;;
22610;SDS011;11472;45.494;12.142;2022-11-15T06:17:00;53.30;;;31.60;;
22610;SDS011;11472;45.494;12.142;2022-11-15T06:18:00;53.30;;;31.60;;
22610;SDS011;11472;45.494;12.142;2022-11-15T06:19:00;53.30;;;31.60;;
22610;SDS011;11472;45.494;12.142;2022-11-15T06:20:00;53.30;;;31.60;;
22610;SDS011;11472;45.494;12.142;2022-11-15T06:21:00;53.30;;;31.60;;
22610;SDS011;11472;45.494;12.142;2022-11-15T06:22:00;53.30;;;31.60;;